createdAt,value
2023-03-10T00:01:23.941Z,96674.64
2023-03-10T00:03:53.389Z,96671.58
2023-03-10T00:06:24.358Z,96676.64
2023-03-10T00:08:52.407Z,96680.27
2023-03-10T00:11:21.262Z,96681.13
2023-03-10T00:13:49.677Z,96683.09
2023-03-10T00:16:24.579Z,96685.92
2023-03-10T00:18:56.966Z,96683.96
2023-03-10T00:21:31.511Z,96684.13
2023-03-10T00:23:59.701Z,96685.55
2023-03-10T00:26:29.202Z,96684.60
2023-03-10T00:28:58.394Z,96680.33
2023-03-10T00:31:28.152Z,96679.63
2023-03-10T00:33:57.000Z,96687.63
2023-03-10T00:36:29.388Z,96681.27
2023-03-10T00:39:00.951Z,96674.38
2023-03-10T00:41:31.130Z,96670.23
2023-03-10T00:44:00.809Z,96667.48
2023-03-10T00:46:30.191Z,96660.23
2023-03-10T00:48:59.899Z,96655.24
2023-03-10T00:51:28.153Z,96649.45
2023-03-10T00:53:56.559Z,96650.59
2023-03-10T00:56:26.754Z,96647.30
2023-03-10T00:59:00.704Z,96651.69
2023-03-10T01:01:31.331Z,96653.58
2023-03-10T01:04:01.939Z,96656.16
2023-03-10T01:06:32.760Z,96651.58
2023-03-10T01:09:01.894Z,96650.46
2023-03-10T01:11:31.266Z,96646.56
2023-03-10T01:14:02.418Z,96645.11
2023-03-10T01:16:31.020Z,96640.83
2023-03-10T01:18:59.455Z,96638.08
2023-03-10T01:21:31.986Z,96636.43
2023-03-10T01:24:01.351Z,96637.64
2023-03-10T01:26:30.732Z,96638.91
2023-03-10T01:28:59.565Z,96648.52
2023-03-10T01:31:27.682Z,96647.48
2023-03-10T01:33:55.649Z,96649.30
2023-03-10T01:36:26.852Z,96648.86
2023-03-10T01:38:56.669Z,96647.91
2023-03-10T01:41:25.638Z,96651.71
2023-03-10T01:43:56.004Z,96648.61
2023-03-10T01:46:27.320Z,96646.29
2023-03-10T01:48:59.905Z,96636.01
2023-03-10T01:51:32.901Z,96631.60
2023-03-10T01:54:04.144Z,96632.52
2023-03-10T01:56:32.427Z,96637.70
2023-03-10T01:59:00.731Z,96639.08
2023-03-10T02:01:31.402Z,96648.38
2023-03-10T02:04:05.241Z,96648.23
2023-03-10T02:06:35.876Z,96653.66
2023-03-10T02:09:04.907Z,96651.45
2023-03-10T02:11:34.379Z,96654.32
2023-03-10T02:14:06.301Z,96656.50
2023-03-10T02:16:35.024Z,96659.95
2023-03-10T02:19:06.413Z,96661.95
2023-03-10T02:21:49.385Z,96659.73
2023-03-10T02:24:31.812Z,96656.67
2023-03-10T02:27:04.873Z,96659.95
2023-03-10T02:29:45.505Z,96664.33
2023-03-10T02:32:23.766Z,96662.46
2023-03-10T02:34:54.292Z,96661.52
2023-03-10T02:37:27.025Z,96664.45
2023-03-10T02:39:55.840Z,96666.37
2023-03-10T02:42:27.055Z,96663.55
2023-03-10T02:44:55.732Z,96662.70
2023-03-10T02:47:24.212Z,96664.33
2023-03-10T02:49:52.228Z,96664.65
2023-03-10T02:53:27.885Z,96662.86
2023-03-10T02:55:57.200Z,96660.50
2023-03-10T02:58:27.431Z,96657.84
2023-03-10T03:00:56.669Z,96654.77
2023-03-10T03:03:26.443Z,96660.05
2023-03-10T03:05:55.372Z,96661.92
2023-03-10T03:08:24.631Z,96659.42
2023-03-10T03:10:53.022Z,96656.67
2023-03-10T03:13:21.099Z,96651.12
2023-03-10T03:15:50.762Z,96647.59
2023-03-10T03:18:23.648Z,96645.41
2023-03-10T03:20:52.544Z,96643.22
2023-03-10T03:23:20.842Z,96640.92
2023-03-10T03:25:49.573Z,96648.13
2023-03-10T03:28:21.376Z,96655.23
2023-03-10T03:30:51.237Z,96661.31
2023-03-10T03:33:19.795Z,96662.34
2023-03-10T03:35:49.432Z,96659.14
2023-03-10T03:38:18.750Z,96651.41
2023-03-10T03:40:47.381Z,96647.66
2023-03-10T03:43:19.117Z,96641.44
2023-03-10T03:45:47.534Z,96636.86
2023-03-10T03:48:15.971Z,96632.19
2023-03-10T03:50:44.149Z,96631.48
2023-03-10T03:53:20.809Z,96631.14
2023-03-10T03:55:50.450Z,96631.27
2023-03-10T03:58:22.387Z,96632.17
2023-03-10T04:00:53.909Z,96631.94
2023-03-10T04:03:22.019Z,96627.69
2023-03-10T04:05:50.157Z,96628.14
2023-03-10T04:08:20.382Z,96627.64
2023-03-10T04:10:53.986Z,96629.81
2023-03-10T04:13:22.971Z,96631.30
2023-03-10T04:16:00.758Z,96627.48
2023-03-10T04:18:33.308Z,96624.96
2023-03-10T04:21:03.607Z,96624.83
2023-03-10T04:23:32.096Z,96623.91
2023-03-10T04:26:00.711Z,96620.45
2023-03-10T04:28:29.321Z,96616.23
2023-03-10T04:30:57.505Z,96612.52
2023-03-10T04:33:27.755Z,96608.74
2023-03-10T04:35:55.964Z,96607.44
2023-03-10T04:38:24.309Z,96605.02
2023-03-10T04:40:55.103Z,96601.05
2023-03-10T04:43:23.750Z,96601.56
2023-03-10T04:45:51.962Z,96601.80
2023-03-10T04:48:20.267Z,96605.31
2023-03-10T04:50:59.210Z,96607.89
2023-03-10T04:53:29.222Z,96608.61
2023-03-10T04:55:57.801Z,96604.46
2023-03-10T04:58:26.027Z,96601.53
2023-03-10T05:01:02.868Z,96604.13
2023-03-10T05:03:32.124Z,96601.52
2023-03-10T05:06:00.788Z,96600.27
2023-03-10T05:08:28.984Z,96600.65
2023-03-10T05:10:57.550Z,96604.58
2023-03-10T05:13:25.524Z,96606.25
2023-03-10T05:15:54.024Z,96599.27
2023-03-10T05:18:22.060Z,96599.20
2023-03-10T05:20:58.081Z,96600.70
2023-03-10T05:23:27.142Z,96606.42
2023-03-10T05:25:56.256Z,96610.23
2023-03-10T05:28:24.861Z,96610.88
2023-03-10T05:30:53.291Z,96606.20
2023-03-10T05:33:21.623Z,96607.10
2023-03-10T05:35:50.383Z,96612.55
2023-03-10T05:38:19.729Z,96614.63
2023-03-10T05:40:47.803Z,96610.00
2023-03-10T05:43:19.291Z,96610.02
2023-03-10T05:45:56.353Z,96605.06
2023-03-10T05:48:25.641Z,96600.18
2023-03-10T05:50:59.947Z,96602.15
2023-03-10T05:53:30.358Z,96598.32
2023-03-10T05:56:00.435Z,96596.27
2023-03-10T05:58:28.464Z,96590.77
2023-03-10T06:00:56.877Z,96591.30
2023-03-10T06:03:25.897Z,96596.14
2023-03-10T06:05:54.403Z,96597.29
2023-03-10T06:08:23.937Z,96596.59
2023-03-10T06:10:51.986Z,96598.02
2023-03-10T06:13:20.884Z,96596.05
2023-03-10T06:15:54.197Z,96596.77
2023-03-10T06:18:26.600Z,96598.16
2023-03-10T06:20:55.518Z,96601.59
2023-03-10T06:23:25.049Z,96602.77
2023-03-10T06:26:08.563Z,96598.89
2023-03-10T06:28:39.706Z,96600.18
2023-03-10T06:31:12.432Z,96597.14
2023-03-10T06:33:40.568Z,96598.83
2023-03-10T06:36:11.349Z,96599.52
2023-03-10T06:38:40.050Z,96599.33
2023-03-10T06:41:15.900Z,96593.59
2023-03-10T06:43:44.035Z,96583.78
2023-03-10T06:46:13.431Z,96581.98
2023-03-10T06:48:43.898Z,96576.65
2023-03-10T06:51:17.129Z,96574.95
2023-03-10T06:53:46.307Z,96571.61
2023-03-10T06:56:19.062Z,96568.18
2023-03-10T06:58:48.407Z,96559.02
2023-03-10T07:01:32.968Z,96554.48
2023-03-10T07:04:02.517Z,96550.63
2023-03-10T07:06:40.432Z,96543.20
2023-03-10T07:09:23.364Z,96543.98
2023-03-10T07:11:51.462Z,96536.15
2023-03-10T07:14:19.941Z,96534.36
2023-03-10T07:16:48.748Z,96528.76
2023-03-10T07:19:19.815Z,96524.56
2023-03-10T07:21:47.931Z,96522.01
2023-03-10T07:24:16.883Z,96514.52
2023-03-10T07:26:45.740Z,96511.59
2023-03-10T07:29:13.820Z,96509.39
2023-03-10T07:31:45.074Z,96509.83
2023-03-10T07:34:14.105Z,96510.95
2023-03-10T07:36:42.776Z,96512.50
2023-03-10T07:39:11.640Z,96514.35
2023-03-10T07:41:40.170Z,96516.38
2023-03-10T07:44:08.492Z,96514.11
2023-03-10T07:46:37.101Z,96513.47
2023-03-10T07:49:05.299Z,96508.66
2023-03-10T07:51:34.410Z,96502.73
2023-03-10T07:54:02.436Z,96494.30
2023-03-10T07:56:30.515Z,96494.11
2023-03-10T07:59:00.003Z,96484.27
2023-03-10T08:01:30.750Z,96481.23
2023-03-10T08:03:59.677Z,96480.55
2023-03-10T08:06:30.799Z,96480.08
2023-03-10T08:08:59.049Z,96477.02
2023-03-10T08:11:28.476Z,96472.42
2023-03-10T08:13:57.002Z,96466.84
2023-03-10T08:16:25.712Z,96454.07
2023-03-10T08:18:55.738Z,96449.85
2023-03-10T08:21:25.681Z,96449.61
2023-03-10T08:23:53.697Z,96445.73
2023-03-10T08:26:22.744Z,96440.61
2023-03-10T08:28:50.691Z,96436.24
2023-03-10T08:31:20.546Z,96433.52
2023-03-10T08:33:57.256Z,96430.77
2023-03-10T08:36:30.059Z,96427.79
2023-03-10T08:39:00.576Z,96422.66
2023-03-10T08:41:37.366Z,96419.00
2023-03-10T08:44:06.143Z,96415.05
2023-03-10T08:46:35.566Z,96411.97
2023-03-10T08:49:03.969Z,96406.55
2023-03-10T08:51:34.016Z,96404.71
2023-03-10T08:54:05.676Z,96396.52
2023-03-10T08:56:37.536Z,96393.93
2023-03-10T08:59:08.342Z,96391.30
2023-03-10T09:01:37.733Z,96385.08
2023-03-10T09:04:09.712Z,96386.42
2023-03-10T09:06:39.549Z,96385.67
2023-03-10T09:09:10.528Z,96381.34
2023-03-10T09:11:40.018Z,96377.98
2023-03-10T09:14:11.037Z,96376.15
2023-03-10T09:16:40.806Z,96381.64
2023-03-10T09:19:11.335Z,96377.33
2023-03-10T09:21:42.799Z,96376.20
2023-03-10T09:24:12.173Z,96377.15
2023-03-10T09:26:42.866Z,96375.14
2023-03-10T09:29:20.359Z,96377.32
2023-03-10T09:31:51.196Z,96377.39
2023-03-10T09:34:20.523Z,96373.45
2023-03-10T09:36:50.067Z,96367.39
2023-03-10T09:39:18.623Z,96365.09
2023-03-10T09:42:38.043Z,96361.65
2023-03-10T09:45:43.811Z,96357.89
2023-03-10T09:48:42.598Z,96351.27
2023-03-10T09:51:26.378Z,96349.98
2023-03-10T09:54:18.949Z,96355.20
2023-03-10T09:56:49.020Z,96358.37
2023-03-10T09:59:44.131Z,96351.71
2023-03-10T10:02:26.244Z,96345.74
2023-03-10T10:05:12.371Z,96342.56
2023-03-10T10:07:52.729Z,96343.86
2023-03-10T10:10:36.666Z,96343.96
2023-03-10T10:13:15.834Z,96342.04
2023-03-10T10:16:18.251Z,96338.58
2023-03-10T10:19:16.270Z,96338.09
2023-03-10T10:21:59.148Z,96327.53
2023-03-10T10:24:28.886Z,96316.99
2023-03-10T10:26:57.620Z,96307.82
2023-03-10T10:29:38.712Z,96298.01
2023-03-10T10:32:20.977Z,96291.66
2023-03-10T10:34:54.321Z,96285.83
2023-03-10T10:37:32.299Z,96279.19
2023-03-10T10:40:02.501Z,96279.60
2023-03-10T10:42:32.626Z,96277.34
2023-03-10T10:45:05.962Z,96277.19
2023-03-10T10:47:48.010Z,96278.59
2023-03-10T10:50:33.436Z,96269.56
2023-03-10T10:53:19.744Z,96263.86
2023-03-10T10:56:04.049Z,96253.56
2023-03-10T10:58:47.013Z,96249.52
2023-03-10T11:01:17.119Z,96246.47
2023-03-10T11:03:48.174Z,96245.64
2023-03-10T11:06:30.247Z,96241.23
2023-03-10T11:09:12.721Z,96238.45
2023-03-10T11:12:20.417Z,96235.11
2023-03-10T11:14:57.981Z,96236.52
2023-03-10T11:17:38.404Z,96233.11
2023-03-10T11:20:36.325Z,96227.01
2023-03-10T11:23:58.541Z,96224.33
2023-03-10T11:26:41.754Z,96220.20
2023-03-10T11:29:35.202Z,96214.54
2023-03-10T11:32:24.259Z,96202.61
2023-03-10T11:34:55.756Z,96200.65
2023-03-10T11:38:00.903Z,96194.25
2023-03-10T11:40:51.170Z,96186.73
2023-03-10T11:43:38.288Z,96184.30
2023-03-10T11:46:31.839Z,96181.16
2023-03-10T11:49:20.657Z,96177.28
2023-03-10T11:51:55.905Z,96173.77
2023-03-10T11:54:49.538Z,96169.70
2023-03-10T11:57:21.148Z,96170.73
2023-03-10T11:59:56.072Z,96165.45
2023-03-10T12:02:36.578Z,96167.77
2023-03-10T12:05:16.468Z,96167.17
2023-03-10T12:07:49.377Z,96158.39
2023-03-10T12:10:22.011Z,96150.18
2023-03-10T12:12:56.051Z,96144.36
2023-03-10T12:15:39.597Z,96137.54
2023-03-10T12:18:08.602Z,96134.95
2023-03-10T12:20:39.789Z,96128.59
2023-03-10T12:23:11.027Z,96127.16
2023-03-10T12:25:44.705Z,96127.49
2023-03-10T12:28:16.328Z,96121.12
2023-03-10T12:30:50.036Z,96119.08
2023-03-10T12:33:31.016Z,96112.47
2023-03-10T12:36:27.145Z,96108.98
2023-03-10T12:39:00.289Z,96104.39
2023-03-10T12:41:32.008Z,96103.23
2023-03-10T12:44:31.592Z,96100.50
2023-03-10T12:47:15.440Z,96099.45
2023-03-10T12:49:48.284Z,96094.30
2023-03-10T12:52:34.341Z,96095.29
2023-03-10T12:55:15.275Z,96093.36
2023-03-10T12:58:23.988Z,96091.84
2023-03-10T13:01:04.021Z,96091.65
2023-03-10T13:03:45.006Z,96093.66
2023-03-10T13:06:14.881Z,96089.84
2023-03-10T13:08:44.688Z,96085.19
2023-03-10T13:11:28.166Z,96081.51
2023-03-10T13:14:17.924Z,96076.83
2023-03-10T13:17:00.758Z,96065.95
2023-03-10T13:19:35.322Z,96058.19
2023-03-10T13:22:05.044Z,96056.66
2023-03-10T13:24:43.672Z,96051.37
2023-03-10T13:27:20.690Z,96048.49
2023-03-10T13:30:05.656Z,96047.89
2023-03-10T13:32:34.369Z,96046.04
2023-03-10T13:35:23.917Z,96041.31
2023-03-10T13:38:13.700Z,96035.66
2023-03-10T13:40:49.899Z,96035.85
2023-03-10T13:43:35.070Z,96037.20
2023-03-10T13:46:11.444Z,96037.72
2023-03-10T13:48:43.274Z,96037.31
2023-03-10T13:51:14.586Z,96033.79
2023-03-10T13:53:43.117Z,96034.25
2023-03-10T13:56:38.097Z,96029.66
2023-03-10T13:59:13.411Z,96028.40
2023-03-10T14:01:53.685Z,96022.28
2023-03-10T14:04:51.375Z,96023.50
2023-03-10T14:07:30.361Z,96019.62
2023-03-10T14:10:10.783Z,96021.54
2023-03-10T14:12:57.003Z,96022.33
2023-03-10T14:15:44.048Z,96016.57
2023-03-10T14:18:17.358Z,96018.05
2023-03-10T14:20:47.791Z,96014.10
2023-03-10T14:23:19.088Z,96006.15
2023-03-10T14:26:01.247Z,96003.41
2023-03-10T14:28:41.945Z,95996.09
2023-03-10T14:31:28.698Z,95992.02
2023-03-10T14:34:03.574Z,95988.78
2023-03-10T14:39:58.858Z,95982.49
2023-03-10T14:42:42.228Z,95974.32
2023-03-10T14:45:31.320Z,95971.68
2023-03-10T14:48:21.862Z,95969.43
2023-03-10T14:50:51.686Z,95962.21
2023-03-10T14:53:25.472Z,95955.20
2023-03-10T14:55:56.298Z,95954.94
2023-03-10T14:58:31.238Z,95954.33
2023-03-10T15:01:00.393Z,95954.52
2023-03-10T15:03:30.289Z,95949.34
2023-03-10T15:05:58.813Z,95948.66
2023-03-10T15:08:28.673Z,95942.85
2023-03-10T15:10:58.584Z,95938.50
2023-03-10T15:13:30.050Z,95935.59
2023-03-10T15:15:59.336Z,95931.72
2023-03-10T15:18:27.397Z,95925.52
2023-03-10T15:21:01.611Z,95918.88
2023-03-10T15:23:30.860Z,95915.73
2023-03-10T15:25:59.346Z,95913.51
2023-03-10T15:28:27.530Z,95910.00
2023-03-10T15:30:56.423Z,95905.60
2023-03-10T15:33:25.053Z,95898.39
2023-03-10T15:35:54.985Z,95896.55
2023-03-10T15:38:23.141Z,95897.27
2023-03-10T15:40:53.362Z,95893.77
2023-03-10T15:43:22.063Z,95890.69
2023-03-10T15:45:51.096Z,95888.05
2023-03-10T15:48:19.571Z,95881.66
2023-03-10T15:50:47.710Z,95877.95
2023-03-10T15:53:17.461Z,95876.27
2023-03-10T15:55:49.270Z,95872.25
2023-03-10T15:58:17.774Z,95863.05
2023-03-10T16:00:46.253Z,95864.48
2023-03-10T16:03:18.254Z,95861.69
2023-03-10T16:05:48.846Z,95857.43
2023-03-10T16:08:20.666Z,95854.50
2023-03-10T16:10:53.256Z,95850.37
2023-03-10T16:13:24.565Z,95845.67
2023-03-10T16:15:52.993Z,95843.38
2023-03-10T16:18:23.732Z,95843.21
2023-03-10T16:21:00.875Z,95840.45
2023-03-10T16:23:32.271Z,95836.89
2023-03-10T16:26:09.521Z,95833.10
2023-03-10T16:28:44.157Z,95829.32
2023-03-10T16:31:14.145Z,95823.67
2023-03-10T16:33:43.414Z,95822.06
2023-03-10T16:36:16.611Z,95820.92
2023-03-10T16:38:45.327Z,95822.27
2023-03-10T16:41:14.090Z,95820.70
2023-03-10T16:43:43.431Z,95819.77
2023-03-10T16:46:15.901Z,95814.95
2023-03-10T16:48:47.548Z,95812.02
2023-03-10T16:51:33.068Z,95815.52
2023-03-10T16:54:04.069Z,95811.15
2023-03-10T16:56:35.416Z,95806.81
2023-03-10T16:59:05.900Z,95800.65
2023-03-10T17:01:34.093Z,95797.96
2023-03-10T17:04:02.471Z,95795.15
2023-03-10T17:06:32.310Z,95791.71
2023-03-10T17:09:01.586Z,95790.84
2023-03-10T17:11:33.089Z,95790.07
2023-03-10T17:14:04.599Z,95788.59
2023-03-10T17:16:39.575Z,95788.47
2023-03-10T17:19:15.590Z,95787.84
2023-03-10T17:21:47.129Z,95787.48
2023-03-10T17:24:17.730Z,95786.27
2023-03-10T17:26:46.772Z,95785.19
2023-03-10T17:29:15.185Z,95779.89
2023-03-10T17:31:49.133Z,95779.72
2023-03-10T17:34:19.720Z,95778.59
2023-03-10T17:36:50.480Z,95775.61
2023-03-10T17:39:21.839Z,95774.48
2023-03-10T17:41:51.109Z,95773.23
2023-03-10T17:44:19.460Z,95768.55
2023-03-10T17:46:47.857Z,95769.20
2023-03-10T17:49:18.245Z,95767.44
2023-03-10T17:51:47.288Z,95766.00
2023-03-10T17:54:20.837Z,95762.33
2023-03-10T17:56:49.929Z,95762.17
2023-03-10T17:59:18.616Z,95757.98
2023-03-10T18:01:47.104Z,95754.79
2023-03-10T18:04:15.385Z,95755.73
2023-03-10T18:06:43.563Z,95752.13
2023-03-10T18:09:14.749Z,95745.98
2023-03-10T18:11:43.274Z,95746.98
2023-03-10T18:14:11.366Z,95742.30
2023-03-10T18:16:40.461Z,95737.81
2023-03-10T18:19:10.701Z,95739.38
2023-03-10T18:21:39.508Z,95735.47
2023-03-10T18:24:08.860Z,95732.47
2023-03-10T18:26:38.220Z,95731.05
2023-03-10T18:29:06.518Z,95726.38
2023-03-10T18:31:34.938Z,95726.48
2023-03-10T18:34:04.791Z,95728.85
2023-03-10T18:36:34.420Z,95729.59
2023-03-10T18:39:04.024Z,95728.44
2023-03-10T18:41:32.897Z,95727.48
2023-03-10T18:44:01.460Z,95721.66
2023-03-10T18:46:29.857Z,95719.65
2023-03-10T18:48:58.061Z,95711.92
2023-03-10T18:51:28.250Z,95710.86
2023-03-10T18:53:56.976Z,95711.04
2023-03-10T18:56:28.882Z,95712.13
2023-03-10T18:58:57.472Z,95711.55
2023-03-10T19:01:27.105Z,95707.59
2023-03-10T19:03:55.415Z,95704.09
2023-03-10T19:06:29.947Z,95702.68
2023-03-10T19:08:58.025Z,95695.64
2023-03-10T19:11:27.978Z,95691.73
2023-03-10T19:13:56.299Z,95690.73
2023-03-10T19:16:25.052Z,95692.81
2023-03-10T19:18:53.245Z,95688.73
2023-03-10T19:21:23.030Z,95687.42
2023-03-10T19:23:52.724Z,95684.13
2023-03-10T19:26:20.751Z,95680.73
2023-03-10T19:28:48.700Z,95682.08
2023-03-10T19:31:18.904Z,95683.54
2023-03-10T19:33:47.600Z,95682.02
2023-03-10T19:36:17.132Z,95681.24
2023-03-10T19:38:46.115Z,95676.89
2023-03-10T19:41:17.035Z,95676.50
2023-03-10T19:43:50.643Z,95675.05
2023-03-10T19:46:21.288Z,95670.39
2023-03-10T19:48:49.408Z,95661.66
2023-03-10T19:51:23.049Z,95659.18
2023-03-10T19:53:53.336Z,95659.52
2023-03-10T19:56:22.399Z,95660.98
2023-03-10T19:58:51.071Z,95661.77
2023-03-10T20:01:25.174Z,95661.30
2023-03-10T20:04:00.822Z,95658.37
2023-03-10T20:06:29.613Z,95658.83
2023-03-10T20:08:57.727Z,95661.66
2023-03-10T20:11:26.058Z,95663.11
2023-03-10T20:13:54.663Z,95660.08
2023-03-10T20:16:24.414Z,95654.08
2023-03-10T20:18:52.663Z,95649.27
2023-03-10T20:21:21.165Z,95642.71
2023-03-10T20:23:50.722Z,95640.02
2023-03-10T20:26:21.321Z,95640.84
2023-03-10T20:28:50.271Z,95643.95
2023-03-10T20:31:24.311Z,95635.17
2023-03-10T20:33:52.709Z,95634.03
2023-03-10T20:36:20.726Z,95633.38
2023-03-10T20:38:49.865Z,95631.05
2023-03-10T20:41:19.158Z,95627.64
2023-03-10T20:43:48.485Z,95626.39
2023-03-10T20:46:20.085Z,95623.64
2023-03-10T20:48:50.075Z,95614.13
2023-03-10T20:51:19.164Z,95607.25
2023-03-10T20:53:47.313Z,95603.59
2023-03-10T20:56:16.678Z,95602.52
2023-03-10T20:58:45.264Z,95599.86
2023-03-10T21:01:20.134Z,95598.87
2023-03-10T21:03:49.043Z,95595.80
2023-03-10T21:06:18.519Z,95593.16
2023-03-10T21:08:47.770Z,95585.60
2023-03-10T21:11:17.263Z,95578.71
2023-03-10T21:13:45.395Z,95578.61
2023-03-10T21:16:13.487Z,95577.55
2023-03-10T21:18:41.470Z,95575.40
2023-03-10T21:21:10.083Z,95575.59
2023-03-10T21:23:43.985Z,95571.75
2023-03-10T21:26:18.488Z,95574.33
2023-03-10T21:28:48.213Z,95578.48
2023-03-10T21:31:16.684Z,95578.83
2023-03-10T21:33:44.976Z,95576.71
2023-03-10T21:36:19.854Z,95578.13
2023-03-10T21:38:50.191Z,95575.55
2023-03-10T21:41:21.965Z,95570.58
2023-03-10T21:43:50.814Z,95565.72
2023-03-10T21:46:18.984Z,95559.44
2023-03-10T21:48:48.565Z,95555.52
2023-03-10T21:51:20.414Z,95554.26
2023-03-10T21:53:49.592Z,95554.08
2023-03-10T21:56:17.918Z,95553.91
2023-03-10T21:58:46.927Z,95553.61
2023-03-10T22:01:17.513Z,95552.56
2023-03-10T22:03:45.729Z,95550.29
2023-03-10T22:06:13.762Z,95550.34
2023-03-10T22:08:42.894Z,95547.48
2023-03-10T22:11:12.457Z,95547.55
2023-03-10T22:13:40.949Z,95546.61
2023-03-10T22:16:13.831Z,95549.61
2023-03-10T22:18:41.835Z,95545.10
2023-03-10T22:21:10.727Z,95544.00
2023-03-10T22:23:38.865Z,95538.83
2023-03-10T22:26:07.698Z,95538.65
2023-03-10T22:28:37.448Z,95538.48
2023-03-10T22:31:09.953Z,95537.93
2023-03-10T22:33:38.233Z,95539.94
2023-03-10T22:36:09.368Z,95537.77
2023-03-10T22:38:37.484Z,95535.89
2023-03-10T22:41:10.649Z,95537.73
2023-03-10T22:43:38.653Z,95538.87
2023-03-10T22:46:08.944Z,95535.83
2023-03-10T22:48:37.125Z,95535.21
2023-03-10T22:51:08.274Z,95530.49
2023-03-10T22:53:38.286Z,95525.16
2023-03-10T22:56:06.928Z,95521.17
2023-03-10T22:58:36.099Z,95520.02
2023-03-10T23:01:04.957Z,95518.17
2023-03-10T23:03:33.965Z,95517.39
2023-03-10T23:06:06.177Z,95521.02
2023-03-10T23:08:37.606Z,95523.98
2023-03-10T23:11:13.602Z,95521.87
2023-03-10T23:13:42.113Z,95521.75
2023-03-10T23:16:10.592Z,95523.83
2023-03-10T23:18:38.815Z,95521.52
2023-03-10T23:21:07.235Z,95519.10
2023-03-10T23:23:35.323Z,95523.67
2023-03-10T23:26:03.673Z,95523.02
2023-03-10T23:28:32.320Z,95523.39
2023-03-10T23:31:00.855Z,95520.23
2023-03-10T23:33:28.997Z,95510.09
2023-03-10T23:35:57.064Z,95506.98
2023-03-10T23:38:26.796Z,95500.23
2023-03-10T23:40:55.579Z,95501.92
2023-03-10T23:43:24.108Z,95503.36
2023-03-10T23:45:52.316Z,95501.60
2023-03-10T23:48:21.183Z,95500.71
2023-03-10T23:50:49.548Z,95499.40
2023-03-10T23:53:20.948Z,95499.20
2023-03-10T23:55:49.634Z,95503.30
2023-03-10T23:58:19.706Z,95504.19
